SWA3276 KSLC-KDEN
Flight info
| Callsign | SWA3276 |
|---|---|
| Flight time | 0h 58m |
| Altitude | 35000 |
| Route | RUGGD3 PERTY KAMPR LONGZ4 |
| Aircraft | B738/M-SADE2E3GIJ4RWZ/LB1D1 |
Departure
| Time | 2026-05-05 16:02 |
|---|---|
| Airport | Salt Lake City International Airport (KSLC) |
Arrival
| Time | 2026-05-05 17:00 |
|---|---|
| Airport | Denver International Airport (KDEN) |
| Time | Latitude | Longitude | Altitude | Speed | Heading |
|---|---|---|---|---|---|
| 2026-05-05 15:34 | 40.78836 | -111.98713 | 4233 ft | 0 kts | 354° |
| 2026-05-05 15:51 | 40.78833 | -111.98713 | 4233 ft | 2 kts | 355° |
| 2026-05-05 15:51 | 40.78814 | -111.98711 | 4232 ft | 3 kts | 0° |
| 2026-05-05 15:51 | 40.78794 | -111.98713 | 4232 ft | 3 kts | 9° |
| 2026-05-05 15:52 | 40.78775 | -111.98719 | 4232 ft | 3 kts | 25° |
| 2026-05-05 15:52 | 40.78760 | -111.98732 | 4232 ft | 3 kts | 62° |
| 2026-05-05 15:52 | 40.78756 | -111.98743 | 4231 ft | 0 kts | 85° |
| 2026-05-05 15:54 | 40.78757 | -111.98736 | 4232 ft | 5 kts | 85° |
| 2026-05-05 15:55 | 40.78762 | -111.98658 | 4233 ft | 12 kts | 85° |
| 2026-05-05 15:55 | 40.78771 | -111.98523 | 4233 ft | 17 kts | 85° |
| 2026-05-05 15:55 | 40.78779 | -111.98406 | 4233 ft | 21 kts | 85° |
| 2026-05-05 15:55 | 40.78792 | -111.98196 | 4233 ft | 24 kts | 85° |
| 2026-05-05 15:56 | 40.78805 | -111.97978 | 4233 ft | 23 kts | 84° |
| 2026-05-05 15:56 | 40.78830 | -111.97812 | 4232 ft | 15 kts | 60° |
| 2026-05-05 15:56 | 40.78927 | -111.97797 | 4233 ft | 14 kts | 354° |
| 2026-05-05 15:56 | 40.79030 | -111.97811 | 4233 ft | 16 kts | 354° |
| 2026-05-05 15:57 | 40.79162 | -111.97827 | 4233 ft | 22 kts | 355° |
| 2026-05-05 15:57 | 40.79332 | -111.97844 | 4232 ft | 27 kts | 355° |
| 2026-05-05 15:57 | 40.79528 | -111.97868 | 4232 ft | 28 kts | 355° |
| 2026-05-05 15:57 | 40.79716 | -111.97890 | 4232 ft | 26 kts | 354° |
| 2026-05-05 15:58 | 40.79892 | -111.97910 | 4232 ft | 25 kts | 355° |
| 2026-05-05 15:58 | 40.80056 | -111.97927 | 4234 ft | 23 kts | 355° |
| 2026-05-05 15:58 | 40.80211 | -111.97946 | 4235 ft | 22 kts | 354° |
| 2026-05-05 15:58 | 40.80360 | -111.97991 | 4235 ft | 22 kts | 348° |
| 2026-05-05 15:59 | 40.80507 | -111.98010 | 4234 ft | 21 kts | 356° |
| 2026-05-05 15:59 | 40.80647 | -111.98048 | 4234 ft | 20 kts | 348° |
| 2026-05-05 15:59 | 40.80737 | -111.97991 | 4236 ft | 16 kts | 88° |
| 2026-05-05 15:59 | 40.80743 | -111.97873 | 4235 ft | 9 kts | 83° |
| 2026-05-05 16:00 | 40.80745 | -111.97856 | 4237 ft | 0 kts | 83° |
| 2026-05-05 16:00 | 40.80746 | -111.97779 | 4237 ft | 17 kts | 97° |
| 2026-05-05 16:01 | 40.80660 | -111.97684 | 4237 ft | 18 kts | 176° |
| 2026-05-05 16:01 | 40.80451 | -111.97661 | 4237 ft | 59 kts | 175° |
| 2026-05-05 16:01 | 40.79811 | -111.97585 | 4232 ft | 123 kts | 175° |
| 2026-05-05 16:01 | 40.78791 | -111.97461 | 4247 ft | 173 kts | 174° |
| 2026-05-05 16:02 | 40.77496 | -111.97326 | 4626 ft | 196 kts | 176° |
| 2026-05-05 16:02 | 40.76072 | -111.97294 | 5214 ft | 207 kts | 185° |
| 2026-05-05 16:02 | 40.74725 | -111.97889 | 5945 ft | 211 kts | 212° |
| 2026-05-05 16:02 | 40.73734 | -111.99447 | 6142 ft | 240 kts | 246° |
| 2026-05-05 16:03 | 40.73545 | -112.01690 | 6644 ft | 255 kts | 280° |
| 2026-05-05 16:03 | 40.74318 | -112.03890 | 7063 ft | 281 kts | 311° |
| 2026-05-05 16:03 | 40.75973 | -112.05282 | 7808 ft | 288 kts | 345° |
| 2026-05-05 16:03 | 40.77959 | -112.05473 | 8843 ft | 285 kts | 3° |
| 2026-05-05 16:04 | 40.79946 | -112.05178 | 9724 ft | 289 kts | 7° |
| 2026-05-05 16:04 | 40.81951 | -112.04789 | 10507 ft | 295 kts | 7° |
| 2026-05-05 16:04 | 40.84064 | -112.04403 | 10761 ft | 319 kts | 6° |
| 2026-05-05 16:04 | 40.86300 | -112.04044 | 11398 ft | 327 kts | 6° |
| 2026-05-05 16:05 | 40.88560 | -112.03718 | 12320 ft | 325 kts | 6° |
| 2026-05-05 16:05 | 40.90794 | -112.03417 | 13113 ft | 330 kts | 5° |
| 2026-05-05 16:05 | 40.93095 | -112.03122 | 13869 ft | 333 kts | 5° |
| 2026-05-05 16:05 | 40.95406 | -112.02831 | 14563 ft | 337 kts | 5° |
| 2026-05-05 16:06 | 40.97764 | -112.02536 | 15251 ft | 342 kts | 5° |
| 2026-05-05 16:06 | 41.00145 | -112.02239 | 15974 ft | 345 kts | 5° |
| 2026-05-05 16:06 | 41.02517 | -112.01708 | 16617 ft | 351 kts | 19° |
| 2026-05-05 16:06 | 41.04654 | -112.00108 | 17319 ft | 356 kts | 39° |
| 2026-05-05 16:07 | 41.06287 | -111.97638 | 18030 ft | 362 kts | 58° |
| 2026-05-05 16:07 | 41.07426 | -111.94628 | 18633 ft | 367 kts | 64° |
| 2026-05-05 16:07 | 41.08470 | -111.91513 | 19169 ft | 372 kts | 65° |
| 2026-05-05 16:07 | 41.09525 | -111.88361 | 19776 ft | 375 kts | 64° |
| 2026-05-05 16:08 | 41.10612 | -111.85200 | 20364 ft | 379 kts | 64° |
| 2026-05-05 16:08 | 41.11712 | -111.82008 | 20925 ft | 383 kts | 66° |
| 2026-05-05 16:08 | 41.12288 | -111.78538 | 21401 ft | 392 kts | 88° |
| 2026-05-05 16:08 | 41.11890 | -111.74948 | 21951 ft | 398 kts | 108° |
| 2026-05-05 16:09 | 41.10602 | -111.71690 | 22498 ft | 403 kts | 126° |
| 2026-05-05 16:09 | 41.08848 | -111.68777 | 23031 ft | 407 kts | 129° |
| 2026-05-05 16:09 | 41.07019 | -111.65884 | 23478 ft | 412 kts | 130° |
| 2026-05-05 16:09 | 41.05172 | -111.62978 | 23979 ft | 413 kts | 129° |
| 2026-05-05 16:10 | 41.03328 | -111.60047 | 24463 ft | 415 kts | 129° |
| 2026-05-05 16:10 | 41.01483 | -111.57079 | 24882 ft | 418 kts | 129° |
| 2026-05-05 16:10 | 40.99633 | -111.54084 | 25310 ft | 421 kts | 129° |
| 2026-05-05 16:10 | 40.97803 | -111.51110 | 25763 ft | 423 kts | 129° |
| 2026-05-05 16:11 | 40.95937 | -111.48081 | 26211 ft | 425 kts | 129° |
| 2026-05-05 16:11 | 40.91040 | -111.38262 | 27478 ft | 432 kts | 110° |
| 2026-05-05 16:12 | 40.90187 | -111.34448 | 27869 ft | 433 kts | 99° |
| 2026-05-05 16:12 | 40.89247 | -111.26537 | 28635 ft | 439 kts | 97° |
| 2026-05-05 16:13 | 40.87915 | -111.14496 | 29683 ft | 447 kts | 98° |
| 2026-05-05 16:13 | 40.87440 | -111.10418 | 29994 ft | 450 kts | 98° |
| 2026-05-05 16:13 | 40.86954 | -111.06322 | 30292 ft | 452 kts | 98° |
| 2026-05-05 16:14 | 40.85967 | -110.98124 | 31081 ft | 451 kts | 98° |
| 2026-05-05 16:14 | 40.84973 | -110.89946 | 31764 ft | 452 kts | 98° |
| 2026-05-05 16:15 | 40.83971 | -110.81730 | 32452 ft | 452 kts | 98° |
| 2026-05-05 16:15 | 40.82964 | -110.73519 | 33086 ft | 454 kts | 98° |
| 2026-05-05 16:16 | 40.81955 | -110.65337 | 33722 ft | 454 kts | 99° |
| 2026-05-05 16:16 | 40.80931 | -110.57084 | 34173 ft | 458 kts | 99° |
| 2026-05-05 16:17 | 40.79880 | -110.48671 | 34244 ft | 471 kts | 99° |
| 2026-05-05 16:17 | 40.79341 | -110.44375 | 34272 ft | 477 kts | 99° |
| 2026-05-05 16:18 | 40.78242 | -110.35652 | 34343 ft | 488 kts | 100° |
| 2026-05-05 16:18 | 40.77680 | -110.31213 | 34377 ft | 492 kts | 100° |
| 2026-05-05 16:18 | 40.76545 | -110.22290 | 34567 ft | 497 kts | 100° |
| 2026-05-05 16:19 | 40.75970 | -110.17792 | 34688 ft | 498 kts | 100° |
| 2026-05-05 16:19 | 40.74241 | -110.04220 | 34808 ft | 503 kts | 98° |
| 2026-05-05 16:20 | 40.72982 | -109.85775 | 34803 ft | 507 kts | 95° |
| 2026-05-05 16:22 | 40.71455 | -109.62591 | 34831 ft | 508 kts | 96° |
| 2026-05-05 16:23 | 40.70150 | -109.44066 | 34839 ft | 510 kts | 96° |
| 2026-05-05 16:23 | 40.69150 | -109.30079 | 34832 ft | 511 kts | 96° |
| 2026-05-05 16:24 | 40.68474 | -109.20748 | 34830 ft | 512 kts | 96° |
| 2026-05-05 16:25 | 40.67442 | -109.06712 | 34845 ft | 513 kts | 97° |
| 2026-05-05 16:25 | 40.66495 | -108.92686 | 34856 ft | 516 kts | 96° |
| 2026-05-05 16:26 | 40.65300 | -108.73822 | 34873 ft | 517 kts | 96° |
| 2026-05-05 16:27 | 40.64675 | -108.64366 | 34880 ft | 518 kts | 96° |
| 2026-05-05 16:27 | 40.64038 | -108.54895 | 34871 ft | 520 kts | 96° |
| 2026-05-05 16:28 | 40.63392 | -108.45408 | 34880 ft | 520 kts | 97° |
| 2026-05-05 16:28 | 40.63069 | -108.40678 | 34982 ft | 513 kts | 96° |
| 2026-05-05 16:28 | 40.62751 | -108.36036 | 34919 ft | 506 kts | 96° |
| 2026-05-05 16:29 | 40.62120 | -108.26940 | 34872 ft | 501 kts | 96° |
| 2026-05-05 16:29 | 40.61475 | -108.17807 | 34855 ft | 501 kts | 97° |
| 2026-05-05 16:30 | 40.60824 | -108.08682 | 34870 ft | 501 kts | 97° |
| 2026-05-05 16:30 | 40.60165 | -107.99539 | 34867 ft | 503 kts | 97° |
| 2026-05-05 16:31 | 40.59497 | -107.90348 | 34884 ft | 505 kts | 97° |
| 2026-05-05 16:31 | 40.58819 | -107.81125 | 34908 ft | 507 kts | 97° |
| 2026-05-05 16:32 | 40.58132 | -107.71870 | 34921 ft | 509 kts | 97° |
| 2026-05-05 16:32 | 40.57436 | -107.62591 | 34937 ft | 511 kts | 97° |
| 2026-05-05 16:33 | 40.56739 | -107.53344 | 34941 ft | 512 kts | 98° |
| 2026-05-05 16:33 | 40.56031 | -107.44021 | 34940 ft | 513 kts | 98° |
| 2026-05-05 16:34 | 40.55315 | -107.34691 | 34949 ft | 513 kts | 98° |
| 2026-05-05 16:34 | 40.54588 | -107.25328 | 34956 ft | 515 kts | 98° |
| 2026-05-05 16:35 | 40.53854 | -107.15963 | 34954 ft | 516 kts | 98° |
| 2026-05-05 16:35 | 40.53109 | -107.06573 | 34935 ft | 517 kts | 98° |
| 2026-05-05 16:36 | 40.52356 | -106.97165 | 34946 ft | 518 kts | 99° |
| 2026-05-05 16:36 | 40.51590 | -106.87703 | 34640 ft | 524 kts | 99° |
| 2026-05-05 16:37 | 40.51204 | -106.82967 | 34265 ft | 519 kts | 99° |
| 2026-05-05 16:37 | 40.50826 | -106.78337 | 33824 ft | 511 kts | 98° |
| 2026-05-05 16:37 | 40.50449 | -106.73740 | 33329 ft | 503 kts | 98° |
| 2026-05-05 16:37 | 40.50075 | -106.69204 | 32876 ft | 495 kts | 98° |
| 2026-05-05 16:38 | 40.49704 | -106.64745 | 32425 ft | 487 kts | 98° |
| 2026-05-05 16:38 | 40.49332 | -106.60298 | 32001 ft | 480 kts | 98° |
| 2026-05-05 16:38 | 40.48969 | -106.55968 | 31562 ft | 474 kts | 98° |
| 2026-05-05 16:38 | 40.48612 | -106.51754 | 31170 ft | 467 kts | 98° |
| 2026-05-05 16:39 | 40.48240 | -106.47529 | 30895 ft | 468 kts | 98° |
| 2026-05-05 16:39 | 40.47856 | -106.43267 | 30463 ft | 470 kts | 98° |
| 2026-05-05 16:39 | 40.47470 | -106.39017 | 30044 ft | 466 kts | 98° |
| 2026-05-05 16:39 | 40.47089 | -106.34807 | 29594 ft | 461 kts | 98° |
| 2026-05-05 16:40 | 40.46711 | -106.30634 | 29134 ft | 455 kts | 98° |
| 2026-05-05 16:40 | 40.46338 | -106.26529 | 28712 ft | 450 kts | 98° |
| 2026-05-05 16:40 | 40.45970 | -106.22478 | 28281 ft | 445 kts | 98° |
| 2026-05-05 16:40 | 40.45603 | -106.18461 | 27855 ft | 441 kts | 98° |
| 2026-05-05 16:41 | 40.45238 | -106.14474 | 27435 ft | 438 kts | 97° |
| 2026-05-05 16:41 | 40.44888 | -106.10510 | 27068 ft | 435 kts | 97° |
| 2026-05-05 16:41 | 40.44552 | -106.06627 | 26651 ft | 434 kts | 97° |
| 2026-05-05 16:41 | 40.44212 | -106.02697 | 26242 ft | 432 kts | 97° |
| 2026-05-05 16:42 | 40.43870 | -105.98774 | 25838 ft | 432 kts | 97° |
| 2026-05-05 16:42 | 40.43525 | -105.94855 | 25430 ft | 431 kts | 97° |
| 2026-05-05 16:42 | 40.43173 | -105.90951 | 25026 ft | 430 kts | 99° |
| 2026-05-05 16:42 | 40.42668 | -105.87086 | 24594 ft | 429 kts | 102° |
| 2026-05-05 16:43 | 40.42059 | -105.83271 | 24206 ft | 424 kts | 103° |
| 2026-05-05 16:43 | 40.41425 | -105.79492 | 23770 ft | 422 kts | 103° |
| 2026-05-05 16:43 | 40.40810 | -105.75792 | 23358 ft | 419 kts | 103° |
| 2026-05-05 16:43 | 40.40201 | -105.72056 | 22905 ft | 417 kts | 103° |
| 2026-05-05 16:44 | 40.39609 | -105.68339 | 22450 ft | 414 kts | 102° |
| 2026-05-05 16:44 | 40.39221 | -105.65891 | 22192 ft | 412 kts | 103° |
| 2026-05-05 16:44 | 40.38640 | -105.62236 | 21825 ft | 409 kts | 103° |
| 2026-05-05 16:44 | 40.38065 | -105.58629 | 21733 ft | 399 kts | 103° |
| 2026-05-05 16:45 | 40.37498 | -105.55088 | 21584 ft | 395 kts | 103° |
| 2026-05-05 16:45 | 40.36926 | -105.51527 | 21504 ft | 403 kts | 103° |
| 2026-05-05 16:45 | 40.36344 | -105.47902 | 21385 ft | 408 kts | 103° |
| 2026-05-05 16:45 | 40.35758 | -105.44257 | 21267 ft | 407 kts | 103° |
| 2026-05-05 16:46 | 40.35173 | -105.40632 | 21137 ft | 406 kts | 103° |
| 2026-05-05 16:46 | 40.34472 | -105.37068 | 20978 ft | 403 kts | 113° |
| 2026-05-05 16:46 | 40.33059 | -105.33906 | 20632 ft | 403 kts | 129° |
| 2026-05-05 16:46 | 40.31340 | -105.31017 | 20255 ft | 402 kts | 131° |
| 2026-05-05 16:47 | 40.29622 | -105.28199 | 19875 ft | 399 kts | 131° |
| 2026-05-05 16:47 | 40.27899 | -105.25366 | 19484 ft | 397 kts | 130° |
| 2026-05-05 16:47 | 40.26197 | -105.22541 | 19106 ft | 392 kts | 130° |
| 2026-05-05 16:47 | 40.24526 | -105.19741 | 18731 ft | 388 kts | 130° |
| 2026-05-05 16:48 | 40.22877 | -105.16967 | 18351 ft | 385 kts | 130° |
| 2026-05-05 16:48 | 40.21241 | -105.14209 | 17926 ft | 381 kts | 130° |
| 2026-05-05 16:48 | 40.19624 | -105.11487 | 17509 ft | 377 kts | 130° |
| 2026-05-05 16:48 | 40.18019 | -105.08789 | 17094 ft | 374 kts | 130° |
| 2026-05-05 16:49 | 40.16428 | -105.06114 | 16748 ft | 370 kts | 130° |
| 2026-05-05 16:49 | 40.14859 | -105.03474 | 16423 ft | 365 kts | 131° |
| 2026-05-05 16:49 | 40.13203 | -105.00980 | 16107 ft | 361 kts | 137° |
| 2026-05-05 16:49 | 40.11420 | -104.98681 | 15784 ft | 359 kts | 140° |
| 2026-05-05 16:50 | 40.09601 | -104.96427 | 15487 ft | 361 kts | 140° |
| 2026-05-05 16:50 | 40.07777 | -104.94150 | 15176 ft | 363 kts | 139° |
| 2026-05-05 16:50 | 40.05964 | -104.91849 | 14740 ft | 360 kts | 136° |
| 2026-05-05 16:50 | 40.04194 | -104.89574 | 14498 ft | 355 kts | 136° |
| 2026-05-05 16:51 | 40.02473 | -104.87355 | 14203 ft | 350 kts | 136° |
| 2026-05-05 16:51 | 40.00753 | -104.85142 | 13905 ft | 345 kts | 136° |
| 2026-05-05 16:51 | 39.99050 | -104.82955 | 13571 ft | 340 kts | 136° |
| 2026-05-05 16:51 | 39.97148 | -104.81182 | 13251 ft | 334 kts | 158° |
| 2026-05-05 16:52 | 39.94942 | -104.80432 | 12980 ft | 325 kts | 178° |
| 2026-05-05 16:52 | 39.92712 | -104.80422 | 12783 ft | 316 kts | 183° |
| 2026-05-05 16:52 | 39.90525 | -104.80512 | 12512 ft | 312 kts | 184° |
| 2026-05-05 16:52 | 39.88373 | -104.80607 | 12262 ft | 308 kts | 184° |
| 2026-05-05 16:53 | 39.86246 | -104.80686 | 12006 ft | 304 kts | 183° |
| 2026-05-05 16:53 | 39.84138 | -104.80752 | 11755 ft | 303 kts | 183° |
| 2026-05-05 16:53 | 39.82063 | -104.80809 | 11515 ft | 301 kts | 183° |
| 2026-05-05 16:53 | 39.79976 | -104.80865 | 11255 ft | 300 kts | 183° |
| 2026-05-05 16:54 | 39.77901 | -104.81064 | 11013 ft | 297 kts | 193° |
| 2026-05-05 16:54 | 39.75900 | -104.81677 | 10789 ft | 295 kts | 197° |
| 2026-05-05 16:54 | 39.73912 | -104.82364 | 10547 ft | 295 kts | 197° |
| 2026-05-05 16:54 | 39.71925 | -104.83028 | 10308 ft | 295 kts | 196° |
| 2026-05-05 16:55 | 39.69937 | -104.83660 | 10071 ft | 295 kts | 192° |
| 2026-05-05 16:55 | 39.67887 | -104.83615 | 9800 ft | 298 kts | 165° |
| 2026-05-05 16:55 | 39.66075 | -104.82374 | 9542 ft | 297 kts | 138° |
| 2026-05-05 16:55 | 39.64881 | -104.80227 | 9283 ft | 294 kts | 111° |
| 2026-05-05 16:56 | 39.64444 | -104.77664 | 9074 ft | 290 kts | 92° |
| 2026-05-05 16:56 | 39.64372 | -104.75103 | 9009 ft | 279 kts | 90° |
| 2026-05-05 16:56 | 39.64319 | -104.72631 | 8974 ft | 268 kts | 90° |
| 2026-05-05 16:56 | 39.64269 | -104.70263 | 8955 ft | 258 kts | 86° |
| 2026-05-05 16:57 | 39.64740 | -104.68083 | 8980 ft | 250 kts | 53° |
| 2026-05-05 16:57 | 39.65997 | -104.66583 | 8752 ft | 250 kts | 21° |
| 2026-05-05 16:57 | 39.67687 | -104.66136 | 8439 ft | 249 kts | 360° |
| 2026-05-05 16:57 | 39.69426 | -104.66113 | 8096 ft | 251 kts | 357° |
| 2026-05-05 16:58 | 39.71143 | -104.66176 | 7847 ft | 248 kts | 356° |
| 2026-05-05 16:58 | 39.72834 | -104.66185 | 7538 ft | 234 kts | 358° |
| 2026-05-05 16:58 | 39.74401 | -104.66161 | 7248 ft | 217 kts | 358° |
| 2026-05-05 16:58 | 39.75855 | -104.66142 | 6980 ft | 201 kts | 357° |
| 2026-05-05 16:59 | 39.77203 | -104.66126 | 6764 ft | 186 kts | 357° |
| 2026-05-05 16:59 | 39.78425 | -104.66109 | 6533 ft | 166 kts | 357° |
| 2026-05-05 16:59 | 39.79544 | -104.66098 | 6231 ft | 158 kts | 359° |
| 2026-05-05 16:59 | 39.80652 | -104.66085 | 5958 ft | 160 kts | 1° |
| 2026-05-05 17:00 | 39.81768 | -104.66074 | 5689 ft | 161 kts | 2° |
| 2026-05-05 17:00 | 39.82892 | -104.66063 | 5463 ft | 160 kts | 3° |
| 2026-05-05 17:00 | 39.83920 | -104.66046 | 5423 ft | 132 kts | 2° |
| 2026-05-05 17:00 | 39.84521 | -104.65986 | 5403 ft | 39 kts | 18° |
| 2026-05-05 17:01 | 39.84755 | -104.66056 | 5398 ft | 32 kts | 338° |
| 2026-05-05 17:01 | 39.84921 | -104.66168 | 5395 ft | 20 kts | 330° |
| 2026-05-05 17:01 | 39.85031 | -104.66239 | 5396 ft | 17 kts | 346° |
| 2026-05-05 17:01 | 39.85149 | -104.66243 | 5394 ft | 17 kts | 0° |
| 2026-05-05 17:02 | 39.85262 | -104.66241 | 5391 ft | 16 kts | 0° |
| 2026-05-05 17:02 | 39.85373 | -104.66240 | 5388 ft | 17 kts | 0° |
| 2026-05-05 17:02 | 39.85502 | -104.66239 | 5393 ft | 21 kts | 0° |
| 2026-05-05 17:02 | 39.85647 | -104.66236 | 5390 ft | 21 kts | 1° |
| 2026-05-05 17:03 | 39.85789 | -104.66235 | 5388 ft | 20 kts | 359° |
| 2026-05-05 17:03 | 39.85926 | -104.66236 | 5385 ft | 19 kts | 359° |
| 2026-05-05 17:03 | 39.86058 | -104.66234 | 5383 ft | 19 kts | 1° |
| 2026-05-05 17:03 | 39.86186 | -104.66230 | 5381 ft | 18 kts | 1° |
| 2026-05-05 17:04 | 39.86310 | -104.66227 | 5381 ft | 17 kts | 1° |
| 2026-05-05 17:04 | 39.86429 | -104.66225 | 5382 ft | 15 kts | 1° |
| 2026-05-05 17:04 | 39.86500 | -104.66280 | 5376 ft | 13 kts | 282° |
| 2026-05-05 17:04 | 39.86501 | -104.66389 | 5373 ft | 11 kts | 270° |
| 2026-05-05 17:05 | 39.86492 | -104.66474 | 5368 ft | 10 kts | 236° |
| 2026-05-05 17:05 | 39.86430 | -104.66511 | 5368 ft | 10 kts | 203° |
| 2026-05-05 17:05 | 39.86407 | -104.66591 | 5371 ft | 10 kts | 271° |
| 2026-05-05 17:05 | 39.86409 | -104.66680 | 5373 ft | 10 kts | 271° |
| 2026-05-05 17:06 | 39.86410 | -104.66772 | 5374 ft | 13 kts | 270° |
| 2026-05-05 17:06 | 39.86411 | -104.66953 | 5370 ft | 26 kts | 271° |
| 2026-05-05 17:06 | 39.86411 | -104.67183 | 5371 ft | 24 kts | 270° |
| 2026-05-05 17:06 | 39.86414 | -104.67283 | 5373 ft | 5 kts | 265° |
| 2026-05-05 17:07 | 39.86393 | -104.67309 | 5373 ft | 5 kts | 185° |
| 2026-05-05 17:07 | 39.86367 | -104.67308 | 5372 ft | 2 kts | 179° |
| 2026-05-05 17:07 | 39.86356 | -104.67308 | 5372 ft | 1 kts | 180° |